Time;durP1;ratioP1;P1;durP2;ratioP2;P2;SDS_P1;SDS_P2;PMS_P1;PMS_P2;Temp;Humidity;BMP_temperature;BMP_pressure;BME280_temperature;BME280_humidity;BME280_pressure;Samples;Min_cycle;Max_cycle;Signal;HPM_P1;HPM_P2
2023/10/01 00:00:15;;;;;;;1.33;1.27;;;;;11.50;97017.00;;;;5015503;28;20189;-62
2023/10/01 00:02:42;;;;;;;3.13;2.80;;;;;11.50;97019.00;;;;5015393;28;20309;-62
2023/10/01 00:05:11;;;;;;;1.33;1.23;;;;;11.50;97009.00;;;;5015617;28;20201;-62
2023/10/01 00:07:39;;;;;;;0.80;0.80;;;;;11.50;97011.00;;;;5015222;28;20200;-62
2023/10/01 00:10:10;;;;;;;1.53;1.43;;;;;11.50;97009.00;;;;5015737;28;20195;-62
2023/10/01 00:12:44;;;;;;;1.00;1.00;;;;;11.50;96998.00;;;;4997718;28;20727;-62
2023/10/01 00:15:14;;;;;;;1.40;1.30;;;;;11.50;96987.00;;;;5015314;28;20221;-62
2023/10/01 00:17:44;;;;;;;6.30;2.00;;;;;11.50;96996.00;;;;5015266;28;20268;-62
2023/10/01 00:20:17;;;;;;;1.77;1.67;;;;;11.30;96998.00;;;;5015199;28;20194;-62
2023/10/01 00:22:45;;;;;;;2.33;2.23;;;;;11.40;96997.00;;;;5015227;28;20217;-62
2023/10/01 00:25:15;;;;;;;1.37;1.03;;;;;11.50;97006.00;;;;5015150;28;20200;-62
2023/10/01 00:27:42;;;;;;;2.20;1.30;;;;;11.40;97006.00;;;;5015185;28;20198;-60
2023/10/01 00:30:11;;;;;;;0.93;0.93;;;;;11.40;97007.00;;;;5015069;28;20189;-61
2023/10/01 00:32:40;;;;;;;2.40;2.20;;;;;11.20;97002.00;;;;5015008;28;20213;-61
2023/10/01 00:35:11;;;;;;;1.53;1.43;;;;;11.10;97011.00;;;;5014910;28;20199;-61
2023/10/01 00:37:40;;;;;;;1.47;1.43;;;;;11.10;97006.00;;;;5015231;28;20185;-62
2023/10/01 00:40:10;;;;;;;2.80;1.57;;;;;11.00;97006.00;;;;5014771;28;20200;-62
2023/10/01 00:42:40;;;;;;;1.30;1.30;;;;;11.00;96997.00;;;;5014986;28;20213;-62
2023/10/01 00:45:11;;;;;;;1.83;1.10;;;;;11.00;97007.00;;;;5015104;28;20248;-62
2023/10/01 00:47:40;;;;;;;1.67;1.57;;;;;11.10;97001.00;;;;5014985;28;20236;-62
2023/10/01 00:50:11;;;;;;;0.70;0.70;;;;;11.00;97003.00;;;;5015012;28;20248;-60
2023/10/01 00:52:39;;;;;;;1.33;1.33;;;;;11.00;97009.00;;;;5014513;28;20217;-60
2023/10/01 00:55:08;;;;;;;1.47;1.37;;;;;11.10;96967.00;;;;5014565;28;20194;-60
2023/10/01 00:57:38;;;;;;;1.63;1.33;;;;;11.00;96991.00;;;;5014542;28;20201;-60
2023/10/01 01:00:13;;;;;;;1.43;1.33;;;;;11.10;96985.00;;;;5014729;28;20197;-62
2023/10/01 01:02:46;;;;;;;1.23;1.17;;;;;11.00;96979.00;;;;5014467;28;20279;-62
2023/10/01 01:05:21;;;;;;;3.00;2.07;;;;;11.00;96984.00;;;;5014320;28;20280;-61
2023/10/01 01:07:49;;;;;;;1.83;1.73;;;;;11.00;96981.00;;;;5014648;28;20260;-61
2023/10/01 01:10:19;;;;;;;1.50;1.40;;;;;10.90;96978.00;;;;5014295;28;20204;-61
2023/10/01 01:12:47;;;;;;;1.60;1.50;;;;;11.00;96991.00;;;;5014250;28;20209;-61
2023/10/01 01:15:16;;;;;;;2.63;2.40;;;;;10.90;96962.00;;;;5014259;28;20356;-61
2023/10/01 01:17:44;;;;;;;2.70;1.77;;;;;10.60;96983.00;;;;5013685;28;20585;-61
2023/10/01 01:20:13;;;;;;;1.93;1.73;;;;;10.50;96981.00;;;;5014454;28;20629;-61
2023/10/01 01:22:50;;;;;;;1.43;1.33;;;;;10.60;96981.00;;;;5014287;28;20267;-61
2023/10/01 01:25:20;;;;;;;1.67;1.57;;;;;10.60;96984.00;;;;5014313;28;20189;-61
2023/10/01 01:27:50;;;;;;;1.67;1.30;;;;;10.60;96979.00;;;;5014418;28;20193;-61
2023/10/01 01:30:19;;;;;;;1.40;1.40;;;;;10.60;96975.00;;;;5014282;28;20200;-61
2023/10/01 01:32:53;;;;;;;1.83;1.73;;;;;10.60;96977.00;;;;5013890;28;20213;-61
2023/10/01 01:35:27;;;;;;;1.20;1.20;;;;;10.60;96969.00;;;;5013854;28;20189;-61
2023/10/01 01:37:58;;;;;;;0.67;0.67;;;;;10.60;96966.00;;;;5014464;28;20205;-61
2023/10/01 01:40:31;;;;;;;1.43;1.43;;;;;10.50;96958.00;;;;5013772;28;20219;-61
2023/10/01 01:43:04;;;;;;;1.50;1.40;;;;;10.60;96961.00;;;;5013688;28;20209;-62
2023/10/01 01:45:38;;;;;;;2.60;2.07;;;;;10.60;96967.00;;;;5014056;28;20192;-61
2023/10/01 01:48:21;;;;;;;1.80;1.50;;;;;10.50;96972.00;;;;5013903;28;20188;-61
2023/10/01 01:50:49;;;;;;;2.00;1.90;;;;;10.50;96971.00;;;;5013626;28;20189;-61
2023/10/01 01:53:18;;;;;;;1.27;1.17;;;;;10.50;96972.00;;;;5014110;28;20197;-61
2023/10/01 01:55:47;;;;;;;2.57;1.97;;;;;10.50;96969.00;;;;5013658;28;20288;-61
2023/10/01 01:58:23;;;;;;;2.30;1.90;;;;;10.50;96967.00;;;;5013591;28;20196;-62
2023/10/01 02:01:08;;;;;;;3.20;1.43;;;;;10.50;96958.00;;;;5014152;28;20610;-61
2023/10/01 02:03:37;;;;;;;1.23;1.23;;;;;10.50;96963.00;;;;5013598;28;20283;-61
2023/10/01 02:06:06;;;;;;;1.40;1.30;;;;;10.50;96963.00;;;;5013995;28;20201;-62
2023/10/01 02:08:47;;;;;;;1.97;1.87;;;;;10.40;96958.00;;;;5013577;28;20201;-61
2023/10/01 02:11:15;;;;;;;1.53;1.47;;;;;10.40;96962.00;;;;5013607;28;20240;-61
2023/10/01 02:13:45;;;;;;;0.83;0.83;;;;;10.30;96948.00;;;;5013558;28;20197;-62
2023/10/01 02:16:34;;;;;;;1.20;1.20;;;;;10.40;96953.00;;;;5013407;28;20630;-61
2023/10/01 02:19:14;;;;;;;1.10;1.10;;;;;10.40;96951.00;;;;5013635;28;20203;-61
2023/10/01 02:21:43;;;;;;;0.97;0.97;;;;;10.30;96953.00;;;;5013751;28;20315;-61
2023/10/01 02:24:13;;;;;;;1.60;1.50;;;;;10.30;96949.00;;;;5013834;28;20196;-61
2023/10/01 02:26:41;;;;;;;0.77;0.77;;;;;10.20;96950.00;;;;5013669;28;20618;-61
2023/10/01 02:29:12;;;;;;;5.93;2.47;;;;;10.30;96952.00;;;;5014814;28;20217;-61
2023/10/01 02:31:40;;;;;;;0.90;0.90;;;;;10.30;96954.00;;;;5017607;28;20209;-61
2023/10/01 02:34:08;;;;;;;1.57;1.47;;;;;10.30;96958.00;;;;5017622;28;20189;-62
2023/10/01 02:36:36;;;;;;;1.37;1.27;;;;;10.30;96942.00;;;;5017199;28;20197;-61
2023/10/01 02:39:11;;;;;;;0.93;0.93;;;;;10.20;96946.00;;;;5017215;28;20221;-61
2023/10/01 02:41:40;;;;;;;1.60;1.50;;;;;10.10;96940.00;;;;5017039;28;20708;-61
2023/10/01 02:44:10;;;;;;;3.00;1.83;;;;;10.00;96951.00;;;;5017165;28;20557;-62
2023/10/01 02:46:37;;;;;;;6.00;1.93;;;;;10.00;96938.00;;;;5017251;28;20186;-60
2023/10/01 02:49:12;;;;;;;2.43;2.20;;;;;10.00;96934.00;;;;5017101;28;20243;-60
2023/10/01 02:51:42;;;;;;;1.17;1.13;;;;;9.90;96931.00;;;;5017115;28;20217;-60
2023/10/01 02:54:09;;;;;;;0.90;0.90;;;;;10.10;96927.00;;;;5016810;28;20560;-60
2023/10/01 02:56:52;;;;;;;1.47;1.37;;;;;10.10;96934.00;;;;5016805;28;20197;-60
2023/10/01 02:59:20;;;;;;;0.90;0.90;;;;;10.10;96927.00;;;;4999142;28;20707;-60
2023/10/01 03:01:48;;;;;;;1.50;1.40;;;;;9.90;96926.00;;;;5016598;28;20300;-60
2023/10/01 03:04:16;;;;;;;1.10;1.10;;;;;10.00;96924.00;;;;5016585;28;20226;-60
2023/10/01 03:06:49;;;;;;;1.77;1.67;;;;;9.80;96925.00;;;;5016758;28;20204;-60
2023/10/01 03:09:31;;;;;;;1.70;1.60;;;;;9.80;96927.00;;;;5016606;28;20185;-61
2023/10/01 03:14:59;;;;;;;1.27;1.17;;;;;9.80;96933.00;;;;5015953;28;20745;-61
2023/10/01 03:17:27;;;;;;;2.50;1.23;;;;;9.70;96920.00;;;;5016517;28;20190;-61
2023/10/01 03:20:11;;;;;;;0.90;0.90;;;;;9.70;96924.00;;;;5016931;28;20193;-61
2023/10/01 03:22:37;;;;;;;1.40;1.40;;;;;9.60;96928.00;;;;4998963;28;20605;-61
2023/10/01 03:25:12;;;;;;;1.73;1.63;;;;;9.60;96932.00;;;;5017041;28;20198;-61
2023/10/01 03:27:41;;;;;;;1.30;1.30;;;;;9.60;96922.00;;;;5016631;28;20549;-61
2023/10/01 03:30:18;;;;;;;1.57;1.47;;;;;9.60;96933.00;;;;5016685;28;20202;-61
2023/10/01 03:32:46;;;;;;;1.67;1.57;;;;;9.60;96925.00;;;;5016239;28;20772;-61
2023/10/01 03:35:13;;;;;;;2.03;1.47;;;;;9.60;96915.00;;;;5016200;28;20248;-61
2023/10/01 03:37:43;;;;;;;4.10;1.93;;;;;9.60;96922.00;;;;5016036;28;20197;-61
2023/10/01 03:40:18;;;;;;;1.37;1.27;;;;;9.50;96930.00;;;;5015527;28;20193;-61
2023/10/01 03:42:51;;;;;;;2.97;1.13;;;;;9.50;96923.00;;;;5015919;28;20312;-61
2023/10/01 03:45:26;;;;;;;2.20;1.63;;;;;9.50;96917.00;;;;5016561;28;20208;-61
2023/10/01 03:47:58;;;;;;;1.37;1.33;;;;;9.60;96918.00;;;;5015991;28;20189;-61
2023/10/01 03:50:26;;;;;;;1.83;1.73;;;;;9.60;96925.00;;;;5016439;28;20260;-61
2023/10/01 03:52:54;;;;;;;0.93;0.93;;;;;9.60;96925.00;;;;5015752;28;20205;-61
2023/10/01 03:55:28;;;;;;;0.90;0.90;;;;;9.60;96913.00;;;;5015939;28;20193;-60
2023/10/01 03:58:06;;;;;;;0.90;0.90;;;;;9.60;96918.00;;;;5016329;28;20211;-61
2023/10/01 04:00:41;;;;;;;1.53;1.43;;;;;9.50;96930.00;;;;5016028;28;20186;-61
2023/10/01 04:03:13;;;;;;;8.93;1.87;;;;;9.40;96923.00;;;;5015429;28;20225;-61
2023/10/01 04:05:44;;;;;;;0.73;0.73;;;;;9.30;96922.00;;;;4998594;28;20194;-61
2023/10/01 04:08:12;;;;;;;1.03;1.03;;;;;9.40;96914.00;;;;5015789;28;20182;-61
2023/10/01 04:10:41;;;;;;;1.60;1.43;;;;;9.40;96919.00;;;;5015400;28;20200;-61
2023/10/01 04:13:12;;;;;;;1.40;1.30;;;;;9.40;96909.00;;;;5015860;28;20248;-61
2023/10/01 04:15:43;;;;;;;2.17;2.07;;;;;9.40;96918.00;;;;5015923;28;20201;-61
2023/10/01 04:18:19;;;;;;;1.60;1.53;;;;;9.30;96917.00;;;;5015894;28;20185;-61
2023/10/01 04:21:17;;;;;;;1.03;1.03;;;;;9.20;96912.00;;;;5015546;28;20192;-61
2023/10/01 04:23:48;;;;;;;2.67;1.80;;;;;9.20;96918.00;;;;5015146;28;20780;-61
2023/10/01 04:26:17;;;;;;;1.00;1.00;;;;;9.30;96916.00;;;;5015272;28;20544;-61
2023/10/01 04:28:50;;;;;;;1.03;1.03;;;;;9.20;96920.00;;;;4997839;28;20201;-61
2023/10/01 04:31:19;;;;;;;2.37;2.17;;;;;9.10;96924.00;;;;5015108;28;20239;-61
2023/10/01 04:33:49;;;;;;;1.13;1.13;;;;;9.10;96920.00;;;;4998275;28;20207;-61
2023/10/01 04:36:19;;;;;;;1.63;1.53;;;;;9.20;96917.00;;;;5015318;28;20550;-61
2023/10/01 04:38:48;;;;;;;1.57;1.47;;;;;9.20;96913.00;;;;5015213;28;20201;-61
2023/10/01 04:41:17;;;;;;;2.53;2.33;;;;;9.20;96916.00;;;;5014953;28;20221;-61
2023/10/01 04:43:55;;;;;;;2.80;1.47;;;;;9.10;96896.00;;;;5014727;28;20245;-61
2023/10/01 04:46:25;;;;;;;4.57;2.03;;;;;9.10;96898.00;;;;5015041;28;20232;-61
2023/10/01 04:48:54;;;;;;;3.03;1.37;;;;;9.20;96901.00;;;;5014675;28;20661;-61
2023/10/01 04:51:22;;;;;;;6.53;1.73;;;;;9.10;96901.00;;;;5014854;28;20692;-61
2023/10/01 04:53:49;;;;;;;2.67;2.13;;;;;9.10;96892.00;;;;5014653;28;20272;-61
2023/10/01 04:56:21;;;;;;;2.30;2.10;;;;;9.00;96898.00;;;;5014950;28;20198;-61
2023/10/01 04:58:54;;;;;;;1.00;1.00;;;;;9.10;96899.00;;;;5014790;28;20190;-61
2023/10/01 05:01:24;;;;;;;1.03;1.03;;;;;9.10;96897.00;;;;5014845;28;20217;-61
2023/10/01 05:03:54;;;;;;;1.77;1.67;;;;;9.10;96895.00;;;;5014303;28;20224;-61
2023/10/01 05:06:22;;;;;;;2.63;2.00;;;;;9.20;96907.00;;;;5014255;28;20228;-61
2023/10/01 05:08:56;;;;;;;1.80;1.33;;;;;9.10;96906.00;;;;5014243;28;20661;-61
2023/10/01 05:11:29;;;;;;;1.03;1.03;;;;;9.10;96918.00;;;;5014418;28;20213;-60
2023/10/01 05:13:59;;;;;;;1.83;1.73;;;;;9.10;96918.00;;;;5014586;28;20185;-60
2023/10/01 05:16:27;;;;;;;1.10;1.00;;;;;9.00;96920.00;;;;5014103;28;20205;-60
2023/10/01 05:19:09;;;;;;;1.07;1.07;;;;;9.10;96927.00;;;;5014249;28;20565;-61
2023/10/01 05:21:41;;;;;;;2.47;1.57;;;;;9.10;96921.00;;;;5014027;28;20213;-61
2023/10/01 05:24:10;;;;;;;1.43;1.40;;;;;9.20;96924.00;;;;5014599;28;20182;-61
2023/10/01 05:26:38;;;;;;;1.60;1.50;;;;;9.20;96917.00;;;;5013977;28;20600;-61
2023/10/01 05:29:07;;;;;;;1.70;1.60;;;;;9.10;96923.00;;;;5014039;28;20216;-61
2023/10/01 05:31:39;;;;;;;1.00;1.00;;;;;9.00;96927.00;;;;5013879;28;20260;-61
2023/10/01 05:34:06;;;;;;;1.50;1.40;;;;;8.90;96930.00;;;;5014148;28;20185;-60
2023/10/01 05:36:35;;;;;;;1.50;1.40;;;;;8.90;96923.00;;;;5013982;28;20201;-61
2023/10/01 05:39:11;;;;;;;1.30;1.20;;;;;8.90;96930.00;;;;5013972;28;20194;-61
2023/10/01 05:41:44;;;;;;;2.30;2.20;;;;;8.90;96932.00;;;;5013952;28;20247;-61
2023/10/01 05:44:15;;;;;;;1.17;1.17;;;;;8.80;96930.00;;;;5013990;28;20672;-61
2023/10/01 05:46:42;;;;;;;1.70;1.07;;;;;8.80;96929.00;;;;5013772;28;20192;-61
2023/10/01 05:49:12;;;;;;;0.90;0.90;;;;;8.80;96933.00;;;;5013637;28;20204;-61
2023/10/01 05:51:45;;;;;;;1.87;1.77;;;;;8.80;96940.00;;;;5013483;28;20213;-61
2023/10/01 05:54:18;;;;;;;1.50;1.40;;;;;8.80;96945.00;;;;5013649;28;20178;-61
2023/10/01 05:56:48;;;;;;;1.53;1.13;;;;;8.90;96944.00;;;;5013882;28;20248;-61
2023/10/01 05:59:20;;;;;;;0.77;0.77;;;;;8.80;96950.00;;;;5014217;28;20201;-61
2023/10/01 06:01:48;;;;;;;1.10;0.97;;;;;8.80;96952.00;;;;5013793;28;20229;-62
2023/10/01 06:04:18;;;;;;;1.53;1.10;;;;;8.90;96951.00;;;;5013596;28;20197;-61
2023/10/01 06:06:46;;;;;;;1.93;1.83;;;;;8.90;96960.00;;;;5013593;28;20205;-61
2023/10/01 06:09:15;;;;;;;0.87;0.87;;;;;8.90;96962.00;;;;5013649;28;20629;-61
2023/10/01 06:11:48;;;;;;;1.13;1.10;;;;;9.00;96968.00;;;;5013657;28;20217;-61
2023/10/01 06:17:05;;;;;;;1.73;1.43;;;;;8.90;96956.00;;;;5013639;28;20189;-61
2023/10/01 06:19:33;;;;;;;1.27;1.17;;;;;8.90;96957.00;;;;5013514;28;20185;-61
2023/10/01 06:22:13;;;;;;;1.13;1.13;;;;;9.00;96963.00;;;;5013298;28;20633;-61
2023/10/01 06:24:43;;;;;;;1.33;1.10;;;;;9.00;96953.00;;;;5013593;28;20261;-61
2023/10/01 06:27:12;;;;;;;1.83;1.30;;;;;9.00;96947.00;;;;4995810;28;20247;-61
2023/10/01 06:29:49;;;;;;;3.27;1.77;;;;;9.20;96946.00;;;;5013593;28;20198;-61
2023/10/01 06:32:19;;;;;;;2.90;0.93;;;;;9.20;96944.00;;;;5016633;28;20216;-60
2023/10/01 06:34:47;;;;;;;1.03;1.03;;;;;9.30;96948.00;;;;5013664;28;20194;-61
2023/10/01 06:37:15;;;;;;;1.50;1.40;;;;;9.40;96948.00;;;;5013860;28;20276;-61
2023/10/01 06:39:43;;;;;;;2.30;2.10;;;;;9.50;96948.00;;;;5013278;28;20190;-60
2023/10/01 06:42:20;;;;;;;1.83;1.73;;;;;9.50;96960.00;;;;5013128;28;20213;-61
2023/10/01 06:44:50;;;;;;;0.77;0.77;;;;;9.60;96949.00;;;;5013291;28;20532;-61
2023/10/01 06:47:18;;;;;;;0.87;0.87;;;;;9.70;96955.00;;;;5013640;28;20228;-61
2023/10/01 06:49:59;;;;;;;1.57;1.50;;;;;9.90;96953.00;;;;5013121;28;20198;-61
2023/10/01 06:52:28;;;;;;;1.10;1.10;;;;;10.00;96950.00;;;;5013287;28;20708;-61
2023/10/01 06:54:57;;;;;;;0.83;0.83;;;;;10.10;96954.00;;;;5013342;28;20677;-61
2023/10/01 06:57:28;;;;;;;1.40;1.33;;;;;10.10;96962.00;;;;5013401;28;20205;-61
2023/10/01 06:59:57;;;;;;;1.23;1.17;;;;;10.30;96961.00;;;;5013127;28;20710;-61
2023/10/01 07:02:25;;;;;;;0.90;0.90;;;;;10.30;96955.00;;;;5012782;28;20330;-61
2023/10/01 07:04:58;;;;;;;0.97;0.97;;;;;10.40;96961.00;;;;4995582;28;20269;-61
2023/10/01 07:07:28;;;;;;;1.23;1.20;;;;;10.40;96964.00;;;;5012995;28;20189;-61
2023/10/01 07:09:56;;;;;;;1.17;1.17;;;;;10.50;96967.00;;;;4995654;28;20189;-61
2023/10/01 07:12:24;;;;;;;1.57;1.47;;;;;10.50;96963.00;;;;5013415;28;20584;-61
2023/10/01 07:14:52;;;;;;;1.67;1.57;;;;;10.60;96960.00;;;;5013110;28;20249;-64
2023/10/01 07:17:24;;;;;;;1.57;1.47;;;;;10.70;96966.00;;;;4998169;28;20209;-61
2023/10/01 07:20:00;;;;;;;3.07;1.87;;;;;10.90;96959.00;;;;5017083;28;20182;-61
2023/10/01 07:22:30;;;;;;;2.40;2.20;;;;;11.00;96963.00;;;;4998827;28;20593;-61
2023/10/01 07:24:59;;;;;;;0.90;0.90;;;;;11.00;96969.00;;;;5016424;28;20182;-61
2023/10/01 07:27:27;;;;;;;1.13;1.13;;;;;11.20;96964.00;;;;5017042;28;20194;-61
2023/10/01 07:29:56;;;;;;;0.73;0.73;;;;;11.30;96969.00;;;;5016579;28;20281;-62
2023/10/01 07:32:26;;;;;;;1.00;1.00;;;;;11.50;96973.00;;;;5016116;28;20217;-61
2023/10/01 07:34:59;;;;;;;2.43;2.13;;;;;11.60;96982.00;;;;5016703;28;20657;-61
2023/10/01 07:37:29;;;;;;;1.10;1.00;;;;;11.70;96984.00;;;;5016099;28;20578;-61
2023/10/01 07:39:59;;;;;;;1.20;1.20;;;;;11.60;96983.00;;;;5016585;28;20567;-61
2023/10/01 07:42:27;;;;;;;1.50;1.43;;;;;11.80;96983.00;;;;5016208;28;20267;-61
2023/10/01 07:44:56;;;;;;;1.20;1.13;;;;;11.90;96985.00;;;;5016069;28;20205;-61
2023/10/01 07:47:32;;;;;;;1.17;1.13;;;;;12.10;96988.00;;;;5015950;28;20236;-62
2023/10/01 07:50:02;;;;;;;1.57;1.47;;;;;12.20;96983.00;;;;5015979;28;20641;-61
2023/10/01 07:52:32;;;;;;;2.87;1.97;;;13.00;96.50;12.40;96973.00;;;;5015907;28;20586;-61
2023/10/01 07:55:26;;;;;;;1.47;1.37;;;;;12.30;96981.00;;;;5015744;28;20204;-61
2023/10/01 07:57:48;;;;;;;1.40;1.30;;;13.00;69.50;12.50;96986.00;;;;5015702;28;20208;-61
2023/10/01 08:00:26;;;;;;;1.20;1.20;;;13.10;77.50;12.50;96985.00;;;;5016068;28;20197;-62
2023/10/01 08:05:39;;;;;;;1.20;1.17;;;13.20;79.30;12.80;96999.00;;;;4998727;28;20221;-61
2023/10/01 08:08:08;;;;;;;1.50;1.40;;;;;12.90;96999.00;;;;5014265;28;20578;-61
2023/10/01 08:10:37;;;;;;;1.73;1.63;;;;;12.90;97000.00;;;;5015759;28;20193;-61
2023/10/01 08:13:06;;;;;;;0.90;0.90;;;;;13.10;97001.00;;;;5015444;28;20220;-61
2023/10/01 08:15:39;;;;;;;1.23;1.20;;;;;13.30;96998.00;;;;5015904;28;20213;-61
2023/10/01 08:20:59;;;;;;;1.00;1.00;;;;;13.50;96997.00;;;;5015367;28;20193;-61
2023/10/01 08:23:26;;;;;;;3.57;1.50;;;;;13.60;97002.00;;;;5015521;28;20201;-61
2023/10/01 08:25:55;;;;;;;1.97;1.30;;;14.40;83.90;13.80;96989.00;;;;5015204;28;20212;-62
2023/10/01 08:28:26;;;;;;;0.93;0.93;;;;;14.00;97007.00;;;;5015288;28;20194;-61
2023/10/01 08:31:42;;;;;;;2.77;2.50;;;;;14.20;97007.00;;;;4997665;28;20200;-61
2023/10/01 08:33:51;;;;;;;1.90;1.80;;;;;14.40;97003.00;;;;5015569;28;20255;-61
2023/10/01 08:36:24;;;;;;;1.57;1.47;;;;;14.60;97006.00;;;;5015014;28;20730;-61
2023/10/01 08:41:50;;;;;;;2.93;2.53;;;;;15.00;97002.00;;;;5015026;28;20217;-62
2023/10/01 08:44:20;;;;;;;3.00;1.90;;;;;15.10;96989.00;;;;5015155;28;20209;-62
2023/10/01 08:46:48;;;;;;;2.43;2.23;;;;;15.10;96991.00;;;;4997437;28;20229;-61
2023/10/01 08:49:23;;;;;;;1.60;1.50;;;;;15.20;96987.00;;;;5014833;28;20193;-60
2023/10/01 08:52:04;;;;;;;1.00;1.00;;;;;15.50;96989.00;;;;5014968;28;20220;-60
2023/10/01 08:54:44;;;;;;;2.03;1.93;;;;;15.70;96996.00;;;;5014493;28;20194;-60
2023/10/01 08:57:17;;;;;;;1.47;1.37;;;;;15.90;97001.00;;;;5014795;28;20186;-61
2023/10/01 08:59:45;;;;;;;2.60;1.10;;;;;16.00;96991.00;;;;5015047;28;20269;-61
2023/10/01 09:02:19;;;;;;;1.73;1.63;;;;;16.20;96993.00;;;;5014603;28;20220;-61
2023/10/01 09:04:48;;;;;;;0.87;0.87;;;;;16.30;96993.00;;;;5014771;28;20205;-62
2023/10/01 09:07:19;;;;;;;1.70;1.60;;;;;16.50;96992.00;;;;5015829;28;20584;-62
2023/10/01 09:10:05;;;;;;;2.07;1.37;;;;;16.60;97000.00;;;;5015107;28;20182;-62
2023/10/01 09:12:35;;;;;;;1.57;1.47;;;;;16.70;96992.00;;;;5014368;28;20237;-62
2023/10/01 09:15:05;;;;;;;1.97;1.87;;;;;16.80;96993.00;;;;5014313;28;20182;-61
2023/10/01 09:17:56;;;;;;;2.03;1.83;;;;;17.10;96983.00;;;;5014213;28;20263;-62
2023/10/01 09:20:39;;;;;;;1.40;1.33;;;;;17.20;96984.00;;;;5014142;28;20277;-61
2023/10/01 09:23:07;;;;;;;1.13;1.13;;;;;17.40;96985.00;;;;5014195;28;20680;-62
2023/10/01 09:25:39;;;;;;;5.37;1.83;;;;;17.50;96978.00;;;;5014168;28;20197;-62
2023/10/01 09:31:01;;;;;;;1.27;1.27;;;;;17.80;96986.00;;;;5010700;28;20209;-62
2023/10/01 09:33:32;;;;;;;1.90;1.60;;;;;18.10;96982.00;;;;5014392;28;20177;-62
2023/10/01 09:36:00;;;;;;;3.00;1.37;;;;;18.20;96987.00;;;;5014570;28;20216;-62
2023/10/01 09:38:31;;;;;;;2.17;2.07;;;;;18.20;96978.00;;;;4995744;28;20650;-62
2023/10/01 09:40:59;;;;;;;2.97;1.67;;;;;18.40;96978.00;;;;5013951;28;20193;-62
2023/10/01 09:43:31;;;;;;;1.67;1.47;;;;;18.70;96983.00;;;;5014089;28;20209;-62
2023/10/01 09:46:00;;;;;;;2.60;2.40;;;;;18.70;96980.00;;;;5013898;28;20244;-62
2023/10/01 09:48:33;;;;;;;1.63;1.53;;;19.50;44.30;18.90;96976.00;;;;5013751;28;20198;-62
2023/10/01 09:51:13;;;;;;;1.60;1.50;;;19.40;44.80;18.90;96972.00;;;;5014675;28;20184;-62
2023/10/01 09:53:55;;;;;;;1.77;1.67;;;19.30;44.90;19.20;96974.00;;;;5013790;28;20516;-62
2023/10/01 09:56:29;;;;;;;1.17;1.17;;;19.50;46.40;19.40;96973.00;;;;5013709;28;20189;-62
2023/10/01 09:59:03;;;;;;;2.00;1.90;;;19.60;44.20;19.50;96963.00;;;;5014168;28;20181;-62
2023/10/01 10:01:33;;;;;;;2.23;1.23;;;19.70;44.60;19.60;96976.00;;;;5013885;28;20213;-62
2023/10/01 10:04:03;;;;;;;1.50;1.40;;;19.90;43.60;19.70;96968.00;;;;5013524;28;20305;-62
2023/10/01 10:06:32;;;;;;;1.63;1.50;;;20.00;42.90;19.70;96963.00;;;;5013286;28;20189;-62
2023/10/01 10:09:04;;;;;;;0.70;0.70;;;20.00;42.50;19.70;96955.00;;;;5013921;28;20269;-62
2023/10/01 10:11:36;;;;;;;3.90;3.13;;;20.10;42.90;19.90;96930.00;;;;5013470;28;20325;-62
2023/10/01 10:14:39;;;;;;;2.30;1.90;;;20.20;44.00;20.20;96952.00;;;;5013683;28;20189;-61
2023/10/01 10:17:18;;;;;;;2.23;1.83;;;;;20.50;96951.00;;;;5013477;28;20224;-61
2023/10/01 10:20:15;;;;;;;2.43;2.13;;;20.70;40.00;20.50;96950.00;;;;5013571;28;20182;-60
2023/10/01 10:23:15;;;;;;;4.90;2.33;;;20.80;39.90;20.60;96949.00;;;;4995832;28;20218;-61
2023/10/01 10:25:44;;;;;;;1.63;1.53;;;20.90;40.30;20.80;96945.00;;;;5013590;28;20178;-61
2023/10/01 10:28:12;;;;;;;2.67;2.27;;;21.00;41.30;20.90;96935.00;;;;5013462;28;20190;-60
2023/10/01 10:30:41;;;;;;;1.77;1.67;;;21.20;39.50;20.90;96936.00;;;;5013249;28;20244;-60
2023/10/01 10:33:42;;;;;;;1.50;1.42;;;;;21.20;96932.00;;;;5013322;28;20204;-60
2023/10/01 10:36:51;;;;;;;0.87;0.87;;;;;21.30;96936.00;;;;5013205;28;20711;-60
2023/10/01 10:40:26;;;;;;;1.63;1.43;;;;;21.50;96931.00;;;;5013600;28;20185;-61
2023/10/01 10:43:19;;;;;;;2.15;1.17;;;;;21.60;96936.00;;;;5013436;28;20217;-60
2023/10/01 10:46:00;;;;;;;1.38;1.35;;;;;21.80;96932.00;;;;5013361;28;20545;-61
2023/10/01 10:48:59;;;;;;;1.60;1.50;;;22.10;36.20;22.10;96932.00;;;;5013125;28;20633;-60
2023/10/01 10:51:46;;;;;;;1.95;1.83;;;;;21.80;96926.00;;;;5016318;28;20269;-61
2023/10/01 10:54:28;;;;;;;3.50;1.60;;;22.10;32.70;21.50;96928.00;;;;5016919;28;20196;-60
2023/10/01 10:56:57;;;;;;;1.83;1.73;;;21.90;33.70;21.70;96931.00;;;;5017296;28;20599;-60
2023/10/01 10:59:26;;;;;;;1.85;1.75;;;22.00;34.80;21.80;96932.00;;;;5016762;28;20685;-60
2023/10/01 11:01:57;;;;;;;1.95;1.85;;;;;21.50;96934.00;;;;5016774;28;20260;-61
2023/10/01 11:04:31;;;;;;;2.80;2.55;;;21.90;33.40;21.80;96934.00;;;;5016665;28;20684;-61
2023/10/01 11:07:05;;;;;;;3.58;2.45;;;22.10;35.30;22.00;96931.00;;;;4999292;28;20189;-61
2023/10/01 11:09:34;;;;;;;1.70;1.60;;;22.30;40.30;22.10;96929.00;;;;5016801;28;20630;-61
2023/10/01 11:12:21;;;;;;;2.45;2.30;;;22.40;38.10;22.10;96928.00;;;;4998848;28;20217;-61
2023/10/01 11:15:19;;;;;;;2.38;2.17;;;22.40;39.70;22.70;96933.00;;;;5016505;28;20185;-60
2023/10/01 11:17:47;;;;;;;1.63;1.52;;;22.90;39.90;22.40;96933.00;;;;5015176;28;20218;-61
2023/10/01 11:20:22;;;;;;;1.75;1.65;;;22.80;33.60;22.10;96934.00;;;;4998783;28;20197;-60
2023/10/01 11:22:54;;;;;;;1.95;1.70;;;22.40;34.10;22.30;96925.00;;;;5016389;28;20213;-60
2023/10/01 11:25:22;;;;;;;1.33;1.15;;;22.50;32.80;22.60;96923.00;;;;5016484;28;20271;-60
2023/10/01 11:27:53;;;;;;;2.35;1.77;;;22.70;32.60;22.90;96930.00;;;;5016308;28;20200;-61
2023/10/01 11:30:24;;;;;;;4.68;1.85;;;;;22.30;96916.00;;;;5016335;28;20189;-60
2023/10/01 11:32:58;;;;;;;1.35;1.25;;;;;22.50;96924.00;;;;5016118;28;20248;-60
2023/10/01 11:35:31;;;;;;;9.52;2.25;;;;;22.80;96917.00;;;;4998582;28;20204;-61
2023/10/01 11:38:19;;;;;;;1.98;1.58;;;;;22.60;96914.00;;;;5016495;28;20217;-60
2023/10/01 11:43:38;;;;;;;1.48;1.38;;;;;23.70;96909.00;;;;5016143;28;20265;-61
2023/10/01 11:46:25;;;;;;;4.25;1.58;;;23.60;65.00;23.50;96905.00;;;;5016478;28;20637;-62
2023/10/01 11:48:57;;;;;;;2.35;2.15;;;;;23.60;96907.00;;;;5016359;28;20550;-61
2023/10/01 11:51:43;;;;;;;1.67;1.58;;;;;24.00;96901.00;;;;5016455;28;20217;-61
2023/10/01 11:54:15;;;;;;;2.10;1.90;;;;;24.30;96899.00;;;;4998534;28;20193;-62
2023/10/01 11:56:45;;;;;;;1.60;1.40;;;;;24.40;96895.00;;;;5015819;28;20197;-61
2023/10/01 11:59:25;;;;;;;1.38;1.23;;;;;24.50;96891.00;;;;5016109;28;20200;-61
2023/10/01 12:01:56;;;;;;;2.25;2.13;;;;;24.30;96890.00;;;;5015313;28;20546;-61
2023/10/01 12:04:43;;;;;;;1.25;1.17;;;;;24.60;96893.00;;;;5015680;28;20301;-61
2023/10/01 12:07:17;;;;;;;1.48;1.35;;;;;25.00;96882.00;;;;5015783;28;20295;-61
2023/10/01 12:09:50;;;;;;;2.15;2.00;;;25.00;26.30;25.50;96884.00;;;;5016012;28;20208;-61
2023/10/01 12:12:21;;;;;;;1.67;1.58;;;25.40;26.60;25.90;96878.00;;;;5015292;28;20214;-61
2023/10/01 12:14:55;;;;;;;0.90;0.90;;;25.90;24.50;26.00;96877.00;;;;5015595;28;20190;-61
2023/10/01 12:17:29;;;;;;;3.40;1.88;;;26.00;23.90;26.30;96874.00;;;;5015899;28;20297;-61
2023/10/01 12:20:00;;;;;;;2.15;1.95;;;;;25.90;96871.00;;;;5015151;28;20192;-61
2023/10/01 12:22:29;;;;;;;3.80;2.40;;;;;26.10;96871.00;;;;5015174;28;20307;-61
2023/10/01 12:24:57;;;;;;;2.00;1.90;;;;;26.40;96868.00;;;;5015209;28;20221;-62
2023/10/01 12:27:45;;;;;;;1.65;1.38;;;;;25.80;96868.00;;;;5015155;28;20739;-61
2023/10/01 12:33:08;;;;;;;2.38;2.17;;;;;26.00;96870.00;;;;5153112;27;20563;-60
2023/10/01 12:35:36;;;;;;;6.53;2.13;;;26.00;26.40;26.60;96874.00;;;;5152250;27;20279;-61
2023/10/01 12:40:52;;;;;;;2.03;1.83;;;27.00;24.50;27.40;96879.00;;;;5131422;27;20203;-61
2023/10/01 12:43:36;;;;;;;2.55;2.17;;;27.40;23.80;27.70;96875.00;;;;5131815;27;20633;-61
2023/10/01 12:46:09;;;;;;;2.65;2.45;;;27.50;22.50;28.20;96871.00;;;;5131799;27;20525;-62
2023/10/01 12:49:14;;;;;;;5.32;2.65;;;28.00;22.10;28.30;96871.00;;;;5131893;27;20174;-61
2023/10/01 12:51:33;;;;;;;1.67;1.60;;;28.10;21.70;27.80;96861.00;;;;5131068;28;20749;-61
2023/10/01 12:54:00;;;;;;;2.15;1.63;;;27.80;22.50;27.10;96865.00;;;;5131639;27;20593;-61
2023/10/01 12:56:44;;;;;;;1.45;1.33;;;;;27.50;96861.00;;;;5131273;27;20681;-61
2023/10/01 12:59:18;;;;;;;3.97;2.05;;;27.80;21.80;27.90;96847.00;;;;5131177;27;20181;-61